NOAA Web Site Link Tides and Currents Home Page Transparent placeholder image

PORTS® Data Listing: 8573927 Chesapeake City, MD

CO-OPS RAW PORTS DATA

************************      PRELIMINARY DATA      ************************** 

     THIS RAW DATA HAS NOT BEEN SUBJECT TO THE NATIONAL OCEAN SERVICE'S        
     QUALITY CONTROL OR QUALITY ASSURANCE PROCEDURES AND DOES NOT MEET         
     THE CRITERIA AND STANDARDS OF OFFICIAL NATIONAL OCEAN SERVICE             
     DATA.  IT IS RELEASED FOR LIMITED PUBLIC USE AS PRELIMINARY DATA TO       
     BE USED ONLY WITH APPROPRIATE CAUTION.                                    

************************      PRELIMINARY DATA      ************************** 


       CD   -   Calendar date
       T    -   Time
       TZ   -   Timezone
       PW   -   Predicted water level (feet above MLLW)
       OW   -   Observed water level (feet above MLLW)
       WS   -   Wind speed (knots)
       WD   -   Wind direction (degrees true)
       WG   -   Wind gust (knots)
       AT   -   Air temperature (degrees farenheit)
       WT   -   Water temperature (degrees farenheit)
       AP   -   Air pressure (millibars)
       SA   -   Salinty (PSU - Practical Salinity Units)
       SG   -   Specific gravity
       RH   -   Relative humidity
       AG   -   Air gap (feet)
       VI   -   Visibility (nautical miles)

       ** NOTE **
       A variable that has its data fields filled with "9"s, indicates that
       data was not collected for that sample period.
       **********


STATION NAME: Chesapeake City (8573927)
****************************************************************************************************
    CD       T    TZ    PW     OW    WS   WD   WG    AT    WT    AP    SA    SG     RH    AG   VI
****************************************************************************************************
2018/09/23 21:30 EDT    3.20   3.86    3   31    4  61.2  71.4 1024.5  0.3  0.999 -99.9 -99.99 -9.99
2018/09/23 21:36 EDT    3.24   3.87    3   49    6  61.2  71.4 1024.6  0.3  0.999 -99.9 -99.99 -9.99
2018/09/23 21:42 EDT    3.27   3.91    4   39    6  61.2  71.4 1024.6  0.3  0.999 -99.9 -99.99 -9.99
2018/09/23 21:48 EDT    3.31   3.92    3   37    6  61.0  71.4 1024.7  0.3  0.999 -99.9 -99.99 -9.99
2018/09/23 21:54 EDT    3.34   3.94    4   48    7  61.0  71.4 1024.7  0.3  0.999 -99.9 -99.99 -9.99
2018/09/23 22:00 EDT    3.36   3.94    4   47    6  61.0  71.4 1024.8  0.3  0.999 -99.9 -99.99 -9.99
2018/09/23 22:06 EDT    3.39   3.91    5   53    8  61.0  71.4 1024.8  0.3  0.999 -99.9 -99.99 -9.99
2018/09/23 22:12 EDT    3.40   3.92    3   55    7  61.2  71.4 1024.9  0.3  0.999 -99.9 -99.99 -9.99
2018/09/23 22:18 EDT    3.42   3.92    4   28    6  61.2  71.4 1025.0  0.3  0.999 -99.9 -99.99 -9.99
2018/09/23 22:24 EDT    3.43   3.91    3   43    4  61.2  71.4 1024.9  0.3  0.999 -99.9 -99.99 -9.99
2018/09/23 22:30 EDT    3.44   3.90    3   49    5  61.2  71.4 1025.0  0.3  0.999 -99.9 -99.99 -9.99
2018/09/23 22:36 EDT    3.44   3.90    4   38    6  61.0  71.4 1025.0  0.3  0.999 -99.9 -99.99 -9.99
2018/09/23 22:42 EDT    3.44   3.88    3   35    6  61.0  71.4 1025.0  0.3  0.999 -99.9 -99.99 -9.99
2018/09/23 22:48 EDT    3.43   3.87    4   45    6  61.0  71.4 1025.0  0.3  0.999 -99.9 -99.99 -9.99
2018/09/23 22:54 EDT    3.42   3.85    2   47    6  61.2  71.4 1025.1  0.3  0.999 -99.9 -99.99 -9.99
2018/09/23 23:00 EDT    3.41   3.84    4   58    5  61.2  71.4 1025.0  0.3  0.999 -99.9 -99.99 -9.99
2018/09/23 23:06 EDT    3.39   3.83    4   64    6  61.2  71.4 1025.1  0.3  0.999 -99.9 -99.99 -9.99
2018/09/23 23:12 EDT    3.36   3.81    4   72    6  61.2  71.4 1025.1  0.3  0.999 -99.9 -99.99 -9.99
2018/09/23 23:18 EDT    3.34   3.80    5   63    7  61.2  71.4 1025.1  0.3  0.999 -99.9 -99.99 -9.99
2018/09/23 23:24 EDT    3.31   3.77    4   63    6  61.2  71.4 1025.1  0.3  0.999 -99.9 -99.99 -9.99
2018/09/23 23:30 EDT    3.27   3.74    4   55    6  61.2  71.4 1025.1  0.3  0.999 -99.9 -99.99 -9.99
2018/09/23 23:36 EDT    3.23   3.70    4   57    6  61.2  71.4 1025.1  0.3  0.999 -99.9 -99.99 -9.99
2018/09/23 23:42 EDT    3.19   3.66    4   52    6  61.2  71.4 1025.2  0.3  0.999 -99.9 -99.99 -9.99
2018/09/23 23:48 EDT    3.15   3.62    4   55    5  61.2  71.4 1025.2  0.3  0.999 -99.9 -99.99 -9.99
2018/09/23 23:54 EDT    3.10   3.57    4   59    7  61.2  71.4 1025.2  0.3  0.999 -99.9 -99.99 -9.99
2018/09/24 00:00 EDT    3.05   3.53    5   56    6  61.2  71.2 1025.1  0.3  0.999 -99.9 -99.99 -9.99
2018/09/24 00:06 EDT    2.99   3.48    4   55    6  61.3  71.2 1025.2  0.3  0.999 -99.9 -99.99 -9.99
2018/09/24 00:12 EDT    2.93   3.43    2   55    5  61.7  71.2 1025.2  0.3  0.999 -99.9 -99.99 -9.99
2018/09/24 00:18 EDT    2.87   3.38    4   52    5  61.3  71.2 1025.2  0.3  0.999 -99.9 -99.99 -9.99
2018/09/24 00:24 EDT    2.81   3.32    5   65    7  61.5  71.2 1025.1  0.3  0.999 -99.9 -99.99 -9.99
2018/09/24 00:30 EDT    2.75   3.26    6   74    8  61.7  71.2 1025.0  0.3  0.999 -99.9 -99.99 -9.99
2018/09/24 00:36 EDT    2.68   3.20    5   67    9  62.1  71.2 1025.1  0.3  0.999 -99.9 -99.99 -9.99
2018/09/24 00:42 EDT    2.61   3.13    5   74    7  61.9  71.2 1025.0  0.3  0.999 -99.9 -99.99 -9.99
2018/09/24 00:48 EDT    2.54   3.07    6   60    9  61.9  71.2 1025.1  0.3  0.999 -99.9 -99.99 -9.99
2018/09/24 00:54 EDT    2.47   2.99    4   57    6  62.1  71.2 1025.2  0.3  0.999 -99.9 -99.99 -9.99
2018/09/24 01:00 EDT    2.40   2.92    4   53    7  62.1  71.2 1025.2  0.3  0.999 -99.9 -99.99 -9.99
2018/09/24 01:06 EDT    2.32   2.86    4   56    6  62.1  71.2 1025.1  0.3  0.999 -99.9 -99.99 -9.99
2018/09/24 01:12 EDT    2.25   2.78    4   58    6  62.2  71.1 1025.2  0.3  0.999 -99.9 -99.99 -9.99
2018/09/24 01:18 EDT    2.18   2.72    5   72    7  62.4  71.1 1025.2  0.3  0.999 -99.9 -99.99 -9.99
2018/09/24 01:24 EDT    2.10   2.65    5   64    7  62.2  71.1 1025.2  0.3  0.999 -99.9 -99.99 -9.99
2018/09/24 01:30 EDT    2.03   2.58    7   76    9  62.4  70.9 1025.2  0.3  0.999 -99.9 -99.99 -9.99
2018/09/24 01:36 EDT    1.95   2.51    5   76    8  62.8  70.7 1025.3  0.3  0.999 -99.9 -99.99 -9.99
2018/09/24 01:42 EDT    1.88   2.44    5   95    7  62.6  70.7 1025.3  0.3  0.999 -99.9 -99.99 -9.99
2018/09/24 01:48 EDT    1.80   2.38    6   89    8  63.0  70.7 1025.3  0.3  0.999 -99.9 -99.99 -9.99
2018/09/24 01:54 EDT    1.73   2.31    7   70    9  62.8  70.7 1025.4  0.3  0.999 -99.9 -99.99 -9.99
2018/09/24 02:00 EDT    1.65   2.23    8   70    9  62.4  70.9 1025.4  0.3  0.999 -99.9 -99.99 -9.99
2018/09/24 02:06 EDT    1.58   2.17    7   64    9  62.4  70.9 1025.4  0.3  0.999 -99.9 -99.99 -9.99
2018/09/24 02:12 EDT    1.51   2.10    6   72    8  62.4  70.9 1025.3  0.3  0.999 -99.9 -99.99 -9.99
2018/09/24 02:18 EDT    1.44   2.03    6   69    8  62.2  70.9 1025.4  0.3  0.999 -99.9 -99.99 -9.99
2018/09/24 02:24 EDT    1.37   1.97    4   68    6  62.4  70.9 1025.4  0.4  0.999 -99.9 -99.99 -9.99
2018/09/24 02:30 EDT    1.30   1.91    5   64    7  62.2  70.9 1025.3  0.4  0.999 -99.9 -99.99 -9.99
2018/09/24 02:36 EDT    1.24   1.85    5   65    7  62.2  70.9 1025.3  0.3  0.999 -99.9 -99.99 -9.99
2018/09/24 02:42 EDT    1.17   1.79    6   74    7  62.1  70.9 1025.3  0.4  0.999 -99.9 -99.99 -9.99
2018/09/24 02:48 EDT    1.11   1.73    6   71    7  62.2  70.9 1025.3  0.4  0.999 -99.9 -99.99 -9.99
2018/09/24 02:54 EDT    1.05   1.68    6   69    8  62.2  70.9 1025.2  0.4  0.999 -99.9 -99.99 -9.99
2018/09/24 03:00 EDT    0.99   1.63    5   61    8  62.2  70.7 1025.3  0.4  0.999 -99.9 -99.99 -9.99
2018/09/24 03:06 EDT    0.94   1.59    6   60    8  62.1  70.7 1025.3  0.3  0.999 -99.9 -99.99 -9.99
2018/09/24 03:12 EDT    0.89   1.55    5   53    8  62.1  70.7 1025.3  0.3  0.999 -99.9 -99.99 -9.99
2018/09/24 03:18 EDT    0.84   1.50    4   61    6  62.2  70.7 1025.3  0.3  0.999 -99.9 -99.99 -9.99
2018/09/24 03:24 EDT    0.79   1.45    5   58    7  62.1  70.5 1025.4  0.3  0.999 -99.9 -99.99 -9.99
2018/09/24 03:30 EDT    0.74   1.42    6   66    8  62.1  70.5 1025.5  0.3  0.999 -99.9 -99.99 -9.99
2018/09/24 03:36 EDT    0.70   1.38    7   67   10  61.9  70.5 1025.4  0.3  0.999 -99.9 -99.99 -9.99
2018/09/24 03:42 EDT    0.67   1.34    5   59    9  62.1  70.5 1025.4  0.3  0.999 -99.9 -99.99 -9.99
2018/09/24 03:48 EDT    0.63   1.32    7   69   10  61.9  70.5 1025.5  0.3  0.999 -99.9 -99.99 -9.99
2018/09/24 03:54 EDT    0.60   1.28    5   62    9  62.1  70.3 1025.5  0.3  0.999 -99.9 -99.99 -9.99
2018/09/24 04:00 EDT    0.57   1.24    5   64    9  62.1  70.3 1025.6  0.3  0.999 -99.9 -99.99 -9.99
2018/09/24 04:06 EDT    0.54   1.22    6   70    8  62.1  70.3 1025.6  0.3  0.999 -99.9 -99.99 -9.99
2018/09/24 04:12 EDT    0.52   1.19    8   76   10  62.1  70.3 1025.6  0.3  0.999 -99.9 -99.99 -9.99
2018/09/24 04:18 EDT    0.50   1.18    8   76   10  62.2  70.3 1025.6  0.3  0.999 -99.9 -99.99 -9.99
2018/09/24 04:24 EDT    0.48   1.17    8   68   11  62.4  70.3 1025.6  0.3  0.999 -99.9 -99.99 -9.99
2018/09/24 04:30 EDT    0.46   1.15    8   68   10  62.2  70.3 1025.6  0.3  0.999 -99.9 -99.99 -9.99
2018/09/24 04:36 EDT    0.45   1.15    6   70   11  62.4  70.3 1025.7  0.3  0.999 -99.9 -99.99 -9.99
2018/09/24 04:42 EDT    0.44   1.14    7   72    9  62.6  70.3 1025.8  0.3  0.999 -99.9 -99.99 -9.99
2018/09/24 04:48 EDT    0.43   1.15    7   69    8  62.4  70.2 1025.9  0.3  0.999 -99.9 -99.99 -9.99
2018/09/24 04:54 EDT    0.43   1.17    7   67    9  62.4  70.2 1026.0  0.3  0.999 -99.9 -99.99 -9.99
2018/09/24 05:00 EDT    0.43   1.18    6   70   10  62.6  71.4 1026.0  0.5  0.999 -99.9 -99.99 -9.99
2018/09/24 05:06 EDT    0.42   1.20    6   64    9  62.6  72.1 1026.1  0.5  0.999 -99.9 -99.99 -9.99
2018/09/24 05:12 EDT    0.43   1.21    6   67    9  62.6  72.3 1026.2  0.6  0.999 -99.9 -99.99 -9.99
2018/09/24 05:18 EDT    0.43   1.21    8   70   10  62.8  72.3 1026.1  0.6  0.999 -99.9 -99.99 -9.99
2018/09/24 05:24 EDT    0.44   1.26    8   75   10  62.8  72.3 1026.1  0.6  0.999 -99.9 -99.99 -9.99
2018/09/24 05:30 EDT    0.45   1.29    9   69   11  63.0  72.3 1026.2  0.6  0.999 -99.9 -99.99 -9.99
2018/09/24 05:36 EDT    0.46   1.31    8   72   11  62.8  72.7 1026.2  0.6  0.999 -99.9 -99.99 -9.99
2018/09/24 05:42 EDT    0.48   1.34    8   66   11  62.8  72.9 1026.3  0.7  0.999 -99.9 -99.99 -9.99
2018/09/24 05:48 EDT    0.50   1.36    8   67   11  62.8  73.0 1026.4  0.7  0.999 -99.9 -99.99 -9.99
2018/09/24 05:54 EDT    0.52   1.40    8   71   11  63.0  73.2 1026.4  0.7  0.999 -99.9 -99.99 -9.99
2018/09/24 06:00 EDT    0.55   1.42    9   72   11  63.0  72.9 1026.4  0.7  0.999 -99.9 -99.99 -9.99
2018/09/24 06:06 EDT    0.58   1.43    6   82   10  63.1  72.9 1026.5  0.6  0.999 -99.9 -99.99 -9.99
2018/09/24 06:12 EDT    0.61   1.48    5  108    8  62.6  73.0 1026.5  0.7  0.999 -99.9 -99.99 -9.99
2018/09/24 06:18 EDT    0.65   1.53    7   87   10  63.1  73.0 1026.7  0.7  0.999 -99.9 -99.99 -9.99
2018/09/24 06:24 EDT    0.69   1.54    8   89   11  63.5  72.9 1026.8  0.6  0.999 -99.9 -99.99 -9.99
2018/09/24 06:30 EDT    0.74   1.60    8   74   10  63.1  72.1 1026.8  0.6  0.999 -99.9 -99.99 -9.99
2018/09/24 06:36 EDT    0.79   1.63    8   68   11  63.0  73.0 1026.8  0.7  0.999 -99.9 -99.99 -9.99
2018/09/24 06:42 EDT    0.84   1.68    8   71   11  63.0  72.3 1027.0  0.6  0.999 -99.9 -99.99 -9.99
2018/09/24 06:48 EDT    0.90   1.72    9   74   12  63.1  73.0 1027.1  0.7  0.999 -99.9 -99.99 -9.99
2018/09/24 06:54 EDT    0.96   1.81    8   72   12  63.1  72.3 1027.1  0.6  0.999 -99.9 -99.99 -9.99
2018/09/24 07:00 EDT    1.03   1.82    7   72   10  63.3  72.9 1027.2  0.6  0.999 -99.9 -99.99 -9.99
2018/09/24 07:06 EDT    1.09   1.93    8   77   10  63.5  72.5 1027.2  0.6  0.999 -99.9 -99.99 -9.99
2018/09/24 07:12 EDT    1.17   1.95    6   88   10  63.5  72.9 1027.3  0.6  0.999 -99.9 -99.99 -9.99
2018/09/24 07:18 EDT    1.24   2.07    6   83    9  63.5  72.7 1027.5  0.6  0.999 -99.9 -99.99 -9.99
2018/09/24 07:24 EDT    1.32   2.16    6   85   10  63.5  72.7 1027.6  0.6  0.999 -99.9 -99.99 -9.99
2018/09/24 07:30 EDT    1.40   2.28    8   68   10  63.3  72.9 1027.7  0.6  0.999 -99.9 -99.99 -9.99
2018/09/24 07:36 EDT    1.49   2.39    7   72   10  63.3  72.3 1027.8  0.6  0.999 -99.9 -99.99 -9.99
2018/09/24 07:42 EDT    1.57   2.46    7   66    9  63.1  72.7 1027.8  0.6  0.999 -99.9 -99.99 -9.99
2018/09/24 07:48 EDT    1.66   2.60    8   66   10  63.1  72.3 1027.9  0.6  0.999 -99.9 -99.99 -9.99
2018/09/24 07:54 EDT    1.75   2.66    9   72   11  63.0  72.5 1027.9  0.6  0.999 -99.9 -99.99 -9.99
2018/09/24 08:00 EDT    1.84   2.77    9   74   11  63.0  72.5 1028.0  0.6  0.999 -99.9 -99.99 -9.99
2018/09/24 08:06 EDT    1.92   2.85    7   76   11  63.5  72.3 1028.0  0.6  0.999 -99.9 -99.99 -9.99
2018/09/24 08:12 EDT    2.01   2.92    7   79   10  63.7  72.3 1028.1  0.6  0.999 -99.9 -99.99 -9.99
2018/09/24 08:18 EDT    2.10   3.00    5   83   10  63.7  72.3 1028.3  0.5  0.999 -99.9 -99.99 -9.99
2018/09/24 08:24 EDT    2.18   3.09    5   88    8  63.5  72.1 1028.4  0.6  0.999 -99.9 -99.99 -9.99
2018/09/24 08:30 EDT    2.27   3.14    6   98   10  63.1  72.1 1028.4  0.5  0.999 -99.9 -99.99 -9.99
2018/09/24 08:36 EDT    2.35   3.27    8   89   10  63.5  72.1 1028.5  0.5  0.999 -99.9 -99.99 -9.99
2018/09/24 08:42 EDT    2.43   3.30    5   75    9  63.5  72.1 1028.6  0.5  0.999 -99.9 -99.99 -9.99
2018/09/24 08:48 EDT    2.51   3.39    9   68   11  63.3  72.1 1028.6  0.5  0.999 -99.9 -99.99 -9.99
2018/09/24 08:54 EDT    2.58   3.44    9   75   12  63.5  72.0 1028.6  0.5  0.999 -99.9 -99.99 -9.99
2018/09/24 09:00 EDT    2.65   3.51    8   68   13  63.5  72.0 1028.6  0.5  0.999 -99.9 -99.99 -9.99
2018/09/24 09:06 EDT    2.72   3.60   10   76   11  63.5  72.0 1028.8  0.5  0.999 -99.9 -99.99 -9.99
2018/09/24 09:12 EDT    2.79   3.69    9   78   11  63.5  71.8 1028.9  0.5  0.999 -99.9 -99.99 -9.99
2018/09/24 09:18 EDT    2.85   3.72    9   84   13  64.0  71.8 1029.0  0.5  0.999 -99.9 -99.99 -9.99
2018/09/24 09:24 EDT    2.91   3.78    8   91   12  63.9  72.0 1029.0  0.5  0.999 -99.9 -99.99 -9.99
2018/09/24 09:30 EDT    2.96   3.83    7   92   12  63.7  71.8 1029.0  0.5  0.999 -99.9 -99.99 -9.99
2018/09/24 09:36 EDT    3.01   3.88    6   94   11  63.7  71.6 1029.0  0.5  0.999 -99.9 -99.99 -9.99
2018/09/24 09:42 EDT    3.06   3.94   10   90   13  63.7  71.6 1029.1  0.5  0.999 -99.9 -99.99 -9.99
2018/09/24 09:48 EDT    3.10   3.96    8   90   12  63.9  71.8 1029.1  0.5  0.999 -99.9 -99.99 -9.99
2018/09/24 09:54 EDT    3.14   4.00    9   84   11  64.0  71.6 1029.2  0.5  0.999 -99.9 -99.99 -9.99
2018/09/24 10:00 EDT    3.18   4.04    9   88   12  63.9  71.8 1029.2  0.5  0.999 -99.9 -99.99 -9.99
2018/09/24 10:06 EDT    3.21   4.05    9   73   12  63.9  71.6 1029.3  0.5  0.999 -99.9 -99.99 -9.99
2018/09/24 10:12 EDT    3.24   4.07    8   80   12  63.7  71.6 1029.3  0.4  0.999 -99.9 -99.99 -9.99
2018/09/24 10:18 EDT    3.27   4.09   10   74   12  63.7  71.6 1029.3  0.4  0.999 -99.9 -99.99 -9.99
2018/09/24 10:24 EDT    3.29   4.09    8   82   10  64.2  71.6 1029.4  0.4  0.999 -99.9 -99.99 -9.99
2018/09/24 10:30 EDT    3.30   4.08    9   76   12  64.0  71.6 1029.4  0.4  0.999 -99.9 -99.99 -9.99
2018/09/24 10:36 EDT    3.32   4.07    8   90   13  64.0  71.6 1029.4  0.4  0.999 -99.9 -99.99 -9.99
2018/09/24 10:42 EDT    3.33   4.07   11   76   13  64.2  71.6 1029.4  0.4  0.999 -99.9 -99.99 -9.99
2018/09/24 10:48 EDT    3.33   4.07   10   85   14  64.2  71.6 1029.4  0.4  0.999 -99.9 -99.99 -9.99
2018/09/24 10:54 EDT    3.34   4.05    9   93   14  63.9  71.6 1029.4  0.4  0.999 -99.9 -99.99 -9.99
2018/09/24 11:00 EDT    3.34   4.04    8   95   14  63.9  71.6 1029.5  0.4  0.999 -99.9 -99.99 -9.99
2018/09/24 11:06 EDT    3.33   4.02    7   98   13  64.0  71.6 1029.4  0.4  0.999 -99.9 -99.99 -9.99
2018/09/24 11:12 EDT    3.32   4.00   10   88   15  64.8  71.6 1029.5  0.5  0.999 -99.9 -99.99 -9.99
2018/09/24 11:18 EDT    3.31   3.99   12   76   14  64.6  71.6 1029.5  0.5  0.999 -99.9 -99.99 -9.99
2018/09/24 11:24 EDT    3.29   3.97    9   75   13  64.4  71.6 1029.4  0.5  0.999 -99.9 -99.99 -9.99
2018/09/24 11:30 EDT    3.27   3.95   10   78   13  64.6  71.6 1029.4  0.5  0.999 -99.9 -99.99 -9.99
2018/09/24 11:36 EDT    3.24   3.93   12   75   15  64.4  71.6 1029.4  0.5  0.999 -99.9 -99.99 -9.99
2018/09/24 11:42 EDT    3.21   3.91   12   76   17  64.4  71.6 1029.5  0.5  0.999 -99.9 -99.99 -9.99
2018/09/24 11:48 EDT    3.18   3.88   11   84   15  64.6  71.6 1029.5  0.5  0.999 -99.9 -99.99 -9.99
2018/09/24 11:54 EDT    3.14   3.85    9   74   16  64.9  71.6 1029.5  0.5  0.999 -99.9 -99.99 -9.99
2018/09/24 12:00 EDT    3.10   3.81   13   76   18  64.9  71.4 1029.5  0.5  0.999 -99.9 -99.99 -9.99
2018/09/24 12:06 EDT    3.06   3.77   12   74   16  64.9  71.4 1029.5  0.5  0.999 -99.9 -99.99 -9.99
2018/09/24 12:12 EDT    3.01   3.73   11   84   14  64.9  71.4 1029.5  0.5  0.999 -99.9 -99.99 -9.99
2018/09/24 12:18 EDT    2.96   3.68   11   89   15  64.9  71.4 1029.5  0.5  0.999 -99.9 -99.99 -9.99
2018/09/24 12:24 EDT    2.91   3.63    8   94   11  64.8  71.2 1029.5  0.5  0.999 -99.9 -99.99 -9.99
2018/09/24 12:30 EDT    2.85   3.58    5   96   12  64.8  71.2 1029.5  0.5  0.999 -99.9 -99.99 -9.99
2018/09/24 12:36 EDT    2.79   3.53   11   84   17  64.9  71.2 1029.6  0.5  0.999 -99.9 -99.99 -9.99
2018/09/24 12:42 EDT    2.73   3.47    9   88   15  65.3  71.2 1029.5  0.5  0.999 -99.9 -99.99 -9.99
2018/09/24 12:48 EDT    2.67   3.43   11   78   14  65.3  71.2 1029.5  0.5  0.999 -99.9 -99.99 -9.99
2018/09/24 12:54 EDT    2.60   3.37   11   77   14  65.5  71.1 1029.5  0.5  0.999 -99.9 -99.99 -9.99
2018/09/24 13:00 EDT    2.54   3.32   11   77   16  65.5  71.1 1029.5  0.5  0.999 -99.9 -99.99 -9.99
2018/09/24 13:06 EDT    2.47   3.26   11   80   14  65.5  71.1 1029.6  0.5  0.999 -99.9 -99.99 -9.99
2018/09/24 13:12 EDT    2.40   3.19   13   79   17  65.5  71.1 1029.5  0.5  0.999 -99.9 -99.99 -9.99
2018/09/24 13:18 EDT    2.33   3.13   11   80   14  65.5  71.1 1029.5  0.5  0.999 -99.9 -99.99 -9.99
2018/09/24 13:24 EDT    2.26   3.06    9   87   13  65.7  71.1 1029.4  0.5  0.999 -99.9 -99.99 -9.99
2018/09/24 13:30 EDT    2.18   3.00    7   85   11  65.7  71.1 1029.3  0.5  0.999 -99.9 -99.99 -9.99
2018/09/24 13:36 EDT    2.11   2.93   10   76   12  65.5  71.1 1029.2  0.5  0.999 -99.9 -99.99 -9.99
2018/09/24 13:42 EDT    2.03   2.85    9   74   11  65.8  70.9 1029.2  0.5  0.999 -99.9 -99.99 -9.99
2018/09/24 13:48 EDT    1.96   2.79    9   67   12  65.8  70.9 1029.2  0.5  0.999 -99.9 -99.99 -9.99
2018/09/24 13:54 EDT    1.88   2.71    8   71   13  66.0  70.9 1029.1  0.5  0.999 -99.9 -99.99 -9.99
2018/09/24 14:00 EDT    1.81   2.66    9   80   10  66.2  70.9 1029.0  0.4  0.999 -99.9 -99.99 -9.99
2018/09/24 14:06 EDT    1.73   2.60    6  102   11  66.4  70.9 1029.0  0.4  0.999 -99.9 -99.99 -9.99
2018/09/24 14:12 EDT    1.66   2.52    5  102   10  66.7  70.9 1028.9  0.4  0.999 -99.9 -99.99 -9.99
2018/09/24 14:18 EDT    1.59   2.45   13   86   17  67.1  70.9 1028.9  0.4  0.999 -99.9 -99.99 -9.99
2018/09/24 14:24 EDT    1.51   2.38    7   90   13  67.1  70.9 1028.9  0.4  0.999 -99.9 -99.99 -9.99
2018/09/24 14:30 EDT    1.44   2.32   11   94   15  67.1  70.9 1029.0  0.4  0.999 -99.9 -99.99 -9.99
2018/09/24 14:36 EDT    1.37   2.24    7   93   14  67.1  70.9 1028.9  0.4  0.999 -99.9 -99.99 -9.99
2018/09/24 14:42 EDT    1.30   2.17   12   90   15  67.3  70.7 1028.8  0.4  0.999 -99.9 -99.99 -9.99
2018/09/24 14:48 EDT    1.23   2.11    9   96   16  66.9  70.7 1028.8  0.4  0.999 -99.9 -99.99 -9.99
2018/09/24 14:54 EDT    1.16   2.04    8   98   13  66.7  70.7 1028.8  0.4  0.999 -99.9 -99.99 -9.99
2018/09/24 15:00 EDT    1.10   1.98    7  100   13  66.6  70.7 1028.8  0.4  0.999 -99.9 -99.99 -9.99
2018/09/24 15:06 EDT    1.03   1.93    6   96   11  66.4  70.7 1028.8  0.4  0.999 -99.9 -99.99 -9.99
2018/09/24 15:12 EDT    0.97   1.88    6   82   10  66.6  70.7 1028.8  0.4  0.999 -99.9 -99.99 -9.99
2018/09/24 15:18 EDT    0.91   1.85    8   95   15  66.6  70.7 1028.8  0.4  0.999 -99.9 -99.99 -9.99
2018/09/24 15:24 EDT    0.85   1.80    8   92   11  66.6  70.5 1028.8  0.4  0.999 -99.9 -99.99 -9.99
2018/09/24 15:30 EDT    0.80 -99.99 -999 -999 -999 -99.9 -99.9 -999.9 -9.9 -9.999 -99.9 -99.99 -9.99
2018/09/24 15:36 EDT    0.75 -99.99 -999 -999 -999 -99.9 -99.9 -999.9 -9.9 -9.999 -99.9 -99.99 -9.99
2018/09/24 15:42 EDT    0.70 -99.99 -999 -999 -999 -99.9 -99.9 -999.9 -9.9 -9.999 -99.9 -99.99 -9.99
2018/09/24 15:48 EDT    0.65 -99.99 -999 -999 -999 -99.9 -99.9 -999.9 -9.9 -9.999 -99.9 -99.99 -9.99
2018/09/24 15:54 EDT    0.61 -99.99 -999 -999 -999 -99.9 -99.9 -999.9 -9.9 -9.999 -99.9 -99.99 -9.99
2018/09/24 16:00 EDT    0.57 -99.99 -999 -999 -999 -99.9 -99.9 -999.9 -9.9 -9.999 -99.9 -99.99 -9.99
2018/09/24 16:06 EDT    0.53 -99.99 -999 -999 -999 -99.9 -99.9 -999.9 -9.9 -9.999 -99.9 -99.99 -9.99
2018/09/24 16:12 EDT    0.50 -99.99 -999 -999 -999 -99.9 -99.9 -999.9 -9.9 -9.999 -99.9 -99.99 -9.99
2018/09/24 16:18 EDT    0.47 -99.99 -999 -999 -999 -99.9 -99.9 -999.9 -9.9 -9.999 -99.9 -99.99 -9.99
2018/09/24 16:24 EDT    0.44 -99.99 -999 -999 -999 -99.9 -99.9 -999.9 -9.9 -9.999 -99.9 -99.99 -9.99
2018/09/24 16:30 EDT    0.41 -99.99 -999 -999 -999 -99.9 -99.9 -999.9 -9.9 -9.999 -99.9 -99.99 -9.99
2018/09/24 16:36 EDT    0.39 -99.99 -999 -999 -999 -99.9 -99.9 -999.9 -9.9 -9.999 -99.9 -99.99 -9.99
2018/09/24 16:42 EDT    0.37 -99.99 -999 -999 -999 -99.9 -99.9 -999.9 -9.9 -9.999 -99.9 -99.99 -9.99
2018/09/24 16:48 EDT    0.36 -99.99 -999 -999 -999 -99.9 -99.9 -999.9 -9.9 -9.999 -99.9 -99.99 -9.99
2018/09/24 16:54 EDT    0.34 -99.99 -999 -999 -999 -99.9 -99.9 -999.9 -9.9 -9.999 -99.9 -99.99 -9.99
2018/09/24 17:00 EDT    0.33 -99.99 -999 -999 -999 -99.9 -99.9 -999.9 -9.9 -9.999 -99.9 -99.99 -9.99
2018/09/24 17:06 EDT    0.33 -99.99 -999 -999 -999 -99.9 -99.9 -999.9 -9.9 -9.999 -99.9 -99.99 -9.99
2018/09/24 17:12 EDT    0.32 -99.99 -999 -999 -999 -99.9 -99.9 -999.9 -9.9 -9.999 -99.9 -99.99 -9.99
2018/09/24 17:18 EDT    0.32 -99.99 -999 -999 -999 -99.9 -99.9 -999.9 -9.9 -9.999 -99.9 -99.99 -9.99
2018/09/24 17:24 EDT    0.32 -99.99 -999 -999 -999 -99.9 -99.9 -999.9 -9.9 -9.999 -99.9 -99.99 -9.99
2018/09/24 17:30 EDT    0.32 -99.99 -999 -999 -999 -99.9 -99.9 -999.9 -9.9 -9.999 -99.9 -99.99 -9.99
2018/09/24 17:36 EDT    0.33 -99.99 -999 -999 -999 -99.9 -99.9 -999.9 -9.9 -9.999 -99.9 -99.99 -9.99
2018/09/24 17:42 EDT    0.34 -99.99 -999 -999 -999 -99.9 -99.9 -999.9 -9.9 -9.999 -99.9 -99.99 -9.99
2018/09/24 17:48 EDT    0.35 -99.99 -999 -999 -999 -99.9 -99.9 -999.9 -9.9 -9.999 -99.9 -99.99 -9.99
2018/09/24 17:54 EDT    0.37 -99.99 -999 -999 -999 -99.9 -99.9 -999.9 -9.9 -9.999 -99.9 -99.99 -9.99
2018/09/24 18:00 EDT    0.38 -99.99 -999 -999 -999 -99.9 -99.9 -999.9 -9.9 -9.999 -99.9 -99.99 -9.99
2018/09/24 18:06 EDT    0.40 -99.99 -999 -999 -999 -99.9 -99.9 -999.9 -9.9 -9.999 -99.9 -99.99 -9.99
2018/09/24 18:12 EDT    0.43 -99.99 -999 -999 -999 -99.9 -99.9 -999.9 -9.9 -9.999 -99.9 -99.99 -9.99
2018/09/24 18:18 EDT    0.46 -99.99 -999 -999 -999 -99.9 -99.9 -999.9 -9.9 -9.999 -99.9 -99.99 -9.99
2018/09/24 18:24 EDT    0.49 -99.99 -999 -999 -999 -99.9 -99.9 -999.9 -9.9 -9.999 -99.9 -99.99 -9.99
2018/09/24 18:30 EDT    0.53 -99.99 -999 -999 -999 -99.9 -99.9 -999.9 -9.9 -9.999 -99.9 -99.99 -9.99
2018/09/24 18:36 EDT    0.56 -99.99 -999 -999 -999 -99.9 -99.9 -999.9 -9.9 -9.999 -99.9 -99.99 -9.99
2018/09/24 18:42 EDT    0.61 -99.99 -999 -999 -999 -99.9 -99.9 -999.9 -9.9 -9.999 -99.9 -99.99 -9.99
2018/09/24 18:48 EDT    0.66 -99.99 -999 -999 -999 -99.9 -99.9 -999.9 -9.9 -9.999 -99.9 -99.99 -9.99
2018/09/24 18:54 EDT    0.71 -99.99 -999 -999 -999 -99.9 -99.9 -999.9 -9.9 -9.999 -99.9 -99.99 -9.99
2018/09/24 19:00 EDT    0.77 -99.99 -999 -999 -999 -99.9 -99.9 -999.9 -9.9 -9.999 -99.9 -99.99 -9.99
2018/09/24 19:06 EDT    0.83 -99.99 -999 -999 -999 -99.9 -99.9 -999.9 -9.9 -9.999 -99.9 -99.99 -9.99
2018/09/24 19:12 EDT    0.89 -99.99 -999 -999 -999 -99.9 -99.9 -999.9 -9.9 -9.999 -99.9 -99.99 -9.99
2018/09/24 19:18 EDT    0.96 -99.99 -999 -999 -999 -99.9 -99.9 -999.9 -9.9 -9.999 -99.9 -99.99 -9.99
2018/09/24 19:24 EDT    1.03 -99.99 -999 -999 -999 -99.9 -99.9 -999.9 -9.9 -9.999 -99.9 -99.99 -9.99
2018/09/24 19:30 EDT    1.11 -99.99 -999 -999 -999 -99.9 -99.9 -999.9 -9.9 -9.999 -99.9 -99.99 -9.99
2018/09/24 19:36 EDT    1.19 -99.99 -999 -999 -999 -99.9 -99.9 -999.9 -9.9 -9.999 -99.9 -99.99 -9.99
2018/09/24 19:42 EDT    1.28 -99.99 -999 -999 -999 -99.9 -99.9 -999.9 -9.9 -9.999 -99.9 -99.99 -9.99
2018/09/24 19:48 EDT    1.36 -99.99 -999 -999 -999 -99.9 -99.9 -999.9 -9.9 -9.999 -99.9 -99.99 -9.99
2018/09/24 19:54 EDT    1.45 -99.99 -999 -999 -999 -99.9 -99.9 -999.9 -9.9 -9.999 -99.9 -99.99 -9.99
2018/09/24 20:00 EDT    1.54 -99.99 -999 -999 -999 -99.9 -99.9 -999.9 -9.9 -9.999 -99.9 -99.99 -9.99
2018/09/24 20:06 EDT    1.64 -99.99 -999 -999 -999 -99.9 -99.9 -999.9 -9.9 -9.999 -99.9 -99.99 -9.99
2018/09/24 20:12 EDT    1.73 -99.99 -999 -999 -999 -99.9 -99.9 -999.9 -9.9 -9.999 -99.9 -99.99 -9.99
2018/09/24 20:18 EDT    1.83 -99.99 -999 -999 -999 -99.9 -99.9 -999.9 -9.9 -9.999 -99.9 -99.99 -9.99
2018/09/24 20:24 EDT    1.92 -99.99 -999 -999 -999 -99.9 -99.9 -999.9 -9.9 -9.999 -99.9 -99.99 -9.99
2018/09/24 20:30 EDT    2.02 -99.99 -999 -999 -999 -99.9 -99.9 -999.9 -9.9 -9.999 -99.9 -99.99 -9.99
2018/09/24 20:36 EDT    2.12 -99.99 -999 -999 -999 -99.9 -99.9 -999.9 -9.9 -9.999 -99.9 -99.99 -9.99
2018/09/24 20:42 EDT    2.21 -99.99 -999 -999 -999 -99.9 -99.9 -999.9 -9.9 -9.999 -99.9 -99.99 -9.99
2018/09/24 20:48 EDT    2.30 -99.99 -999 -999 -999 -99.9 -99.9 -999.9 -9.9 -9.999 -99.9 -99.99 -9.99
2018/09/24 20:54 EDT    2.39 -99.99 -999 -999 -999 -99.9 -99.9 -999.9 -9.9 -9.999 -99.9 -99.99 -9.99
2018/09/24 21:00 EDT    2.48 -99.99 -999 -999 -999 -99.9 -99.9 -999.9 -9.9 -9.999 -99.9 -99.99 -9.99
2018/09/24 21:06 EDT    2.57 -99.99 -999 -999 -999 -99.9 -99.9 -999.9 -9.9 -9.999 -99.9 -99.99 -9.99
2018/09/24 21:12 EDT    2.65 -99.99 -999 -999 -999 -99.9 -99.9 -999.9 -9.9 -9.999 -99.9 -99.99 -9.99
2018/09/24 21:18 EDT    2.73 -99.99 -999 -999 -999 -99.9 -99.9 -999.9 -9.9 -9.999 -99.9 -99.99 -9.99
2018/09/24 21:24 EDT    2.80 -99.99 -999 -999 -999 -99.9 -99.9 -999.9 -9.9 -9.999 -99.9 -99.99 -9.99
2018/09/24 21:30 EDT    2.88 -99.99 -999 -999 -999 -99.9 -99.9 -999.9 -9.9 -9.999 -99.9 -99.99 -9.99

Revised: 08/08/2018
NOAA / National Ocean Service
Web site owner: Center for Operational Oceanographic Products and Services